sensor_id;sensor_type;location;lat;lon;timestamp;P1;durP1;ratioP1;P2;durP2;ratioP2
5333;SDS011;2689;50.954;7.116;2024-03-17T00:09:43;13.63;;;5.63;;
5333;SDS011;2689;50.954;7.116;2024-03-17T00:12:15;13.60;;;7.53;;
5333;SDS011;2689;50.954;7.116;2024-03-17T00:15:02;14.90;;;5.40;;
5333;SDS011;2689;50.954;7.116;2024-03-17T00:21:10;8.40;;;5.23;;
5333;SDS011;2689;50.954;7.116;2024-03-17T00:26:36;9.30;;;5.77;;
5333;SDS011;2689;50.954;7.116;2024-03-17T00:28:17;6.77;;;5.03;;
5333;SDS011;2689;50.954;7.116;2024-03-17T00:30:46;7.37;;;4.47;;
5333;SDS011;2689;50.954;7.116;2024-03-17T00:33:12;10.03;;;5.03;;
5333;SDS011;2689;50.954;7.116;2024-03-17T00:35:46;8.97;;;5.33;;
5333;SDS011;2689;50.954;7.116;2024-03-17T00:38:14;8.40;;;5.57;;
5333;SDS011;2689;50.954;7.116;2024-03-17T00:41:06;10.67;;;5.93;;
5333;SDS011;2689;50.954;7.116;2024-03-17T00:43:34;8.27;;;5.97;;
5333;SDS011;2689;50.954;7.116;2024-03-17T00:46:06;9.17;;;5.93;;
5333;SDS011;2689;50.954;7.116;2024-03-17T00:48:48;8.27;;;5.77;;
5333;SDS011;2689;50.954;7.116;2024-03-17T00:51:18;8.70;;;5.50;;
5333;SDS011;2689;50.954;7.116;2024-03-17T00:53:46;8.20;;;6.37;;
5333;SDS011;2689;50.954;7.116;2024-03-17T00:56:40;7.37;;;5.93;;
5333;SDS011;2689;50.954;7.116;2024-03-17T01:01:59;7.50;;;6.03;;
5333;SDS011;2689;50.954;7.116;2024-03-17T01:07:09;8.20;;;6.07;;
5333;SDS011;2689;50.954;7.116;2024-03-17T01:09:40;8.30;;;6.20;;
5333;SDS011;2689;50.954;7.116;2024-03-17T01:12:09;12.07;;;6.43;;
5333;SDS011;2689;50.954;7.116;2024-03-17T01:14:53;10.10;;;6.57;;
5333;SDS011;2689;50.954;7.116;2024-03-17T01:17:41;9.70;;;7.33;;
5333;SDS011;2689;50.954;7.116;2024-03-17T01:20:09;7.47;;;6.63;;
5333;SDS011;2689;50.954;7.116;2024-03-17T01:22:40;9.67;;;6.93;;
5333;SDS011;2689;50.954;7.116;2024-03-17T01:25:14;17.10;;;7.23;;
5333;SDS011;2689;50.954;7.116;2024-03-17T01:27:54;13.17;;;6.63;;
5333;SDS011;2689;50.954;7.116;2024-03-17T01:30:23;15.30;;;7.23;;
5333;SDS011;2689;50.954;7.116;2024-03-17T01:32:49;10.40;;;7.00;;
5333;SDS011;2689;50.954;7.116;2024-03-17T01:35:17;13.13;;;7.30;;
5333;SDS011;2689;50.954;7.116;2024-03-17T01:37:43;10.70;;;7.07;;
5333;SDS011;2689;50.954;7.116;2024-03-17T01:40:12;14.80;;;7.77;;
5333;SDS011;2689;50.954;7.116;2024-03-17T01:42:38;12.73;;;6.60;;
5333;SDS011;2689;50.954;7.116;2024-03-17T01:45:18;9.67;;;7.13;;
5333;SDS011;2689;50.954;7.116;2024-03-17T01:47:59;12.20;;;7.50;;
5333;SDS011;2689;50.954;7.116;2024-03-17T01:50:31;10.90;;;7.53;;
5333;SDS011;2689;50.954;7.116;2024-03-17T01:53:06;11.10;;;7.80;;
5333;SDS011;2689;50.954;7.116;2024-03-17T01:55:36;7.40;;;6.60;;
5333;SDS011;2689;50.954;7.116;2024-03-17T01:58:03;14.30;;;7.27;;
5333;SDS011;2689;50.954;7.116;2024-03-17T02:00:34;8.43;;;6.30;;
5333;SDS011;2689;50.954;7.116;2024-03-17T02:03:03;9.40;;;7.47;;
5333;SDS011;2689;50.954;7.116;2024-03-17T02:05:31;9.97;;;7.60;;
5333;SDS011;2689;50.954;7.116;2024-03-17T02:07:59;10.50;;;7.03;;
5333;SDS011;2689;50.954;7.116;2024-03-17T02:10:29;8.63;;;6.30;;
5333;SDS011;2689;50.954;7.116;2024-03-17T02:12:56;14.60;;;7.67;;
5333;SDS011;2689;50.954;7.116;2024-03-17T02:15:23;10.10;;;6.50;;
5333;SDS011;2689;50.954;7.116;2024-03-17T02:17:50;9.73;;;6.80;;
5333;SDS011;2689;50.954;7.116;2024-03-17T02:20:17;8.63;;;6.67;;
5333;SDS011;2689;50.954;7.116;2024-03-17T02:22:45;10.97;;;6.70;;
5333;SDS011;2689;50.954;7.116;2024-03-17T02:25:15;14.23;;;7.90;;
5333;SDS011;2689;50.954;7.116;2024-03-17T02:27:42;8.07;;;6.80;;
5333;SDS011;2689;50.954;7.116;2024-03-17T02:30:09;10.57;;;7.53;;
5333;SDS011;2689;50.954;7.116;2024-03-17T02:32:35;10.90;;;7.23;;
5333;SDS011;2689;50.954;7.116;2024-03-17T02:35:03;12.67;;;7.80;;
5333;SDS011;2689;50.954;7.116;2024-03-17T02:37:30;10.27;;;7.00;;
5333;SDS011;2689;50.954;7.116;2024-03-17T02:40:00;16.23;;;7.90;;
5333;SDS011;2689;50.954;7.116;2024-03-17T02:42:27;11.67;;;8.20;;
5333;SDS011;2689;50.954;7.116;2024-03-17T02:44:54;13.80;;;7.50;;
5333;SDS011;2689;50.954;7.116;2024-03-17T02:47:20;9.70;;;7.57;;
5333;SDS011;2689;50.954;7.116;2024-03-17T02:49:47;11.03;;;7.13;;
5333;SDS011;2689;50.954;7.116;2024-03-17T02:52:15;10.90;;;7.50;;
5333;SDS011;2689;50.954;7.116;2024-03-17T02:54:42;10.80;;;7.80;;
5333;SDS011;2689;50.954;7.116;2024-03-17T02:57:12;10.27;;;6.87;;
5333;SDS011;2689;50.954;7.116;2024-03-17T02:59:39;13.23;;;7.83;;
5333;SDS011;2689;50.954;7.116;2024-03-17T03:02:09;13.27;;;7.70;;
5333;SDS011;2689;50.954;7.116;2024-03-17T03:04:36;10.80;;;8.17;;
5333;SDS011;2689;50.954;7.116;2024-03-17T03:07:05;16.90;;;8.63;;
5333;SDS011;2689;50.954;7.116;2024-03-17T03:09:34;14.27;;;7.80;;
5333;SDS011;2689;50.954;7.116;2024-03-17T03:12:01;18.00;;;7.80;;
5333;SDS011;2689;50.954;7.116;2024-03-17T03:14:30;15.20;;;7.33;;
5333;SDS011;2689;50.954;7.116;2024-03-17T03:16:59;10.03;;;7.30;;
5333;SDS011;2689;50.954;7.116;2024-03-17T03:19:26;8.37;;;7.43;;
5333;SDS011;2689;50.954;7.116;2024-03-17T03:21:58;13.13;;;7.43;;
5333;SDS011;2689;50.954;7.116;2024-03-17T03:24:25;9.33;;;7.67;;
5333;SDS011;2689;50.954;7.116;2024-03-17T03:26:53;13.00;;;8.03;;
5333;SDS011;2689;50.954;7.116;2024-03-17T03:29:20;12.53;;;7.87;;
5333;SDS011;2689;50.954;7.116;2024-03-17T03:32:00;11.13;;;8.80;;
5333;SDS011;2689;50.954;7.116;2024-03-17T03:34:27;9.70;;;7.10;;
5333;SDS011;2689;50.954;7.116;2024-03-17T03:36:56;13.60;;;8.27;;
5333;SDS011;2689;50.954;7.116;2024-03-17T03:39:23;10.57;;;8.10;;
5333;SDS011;2689;50.954;7.116;2024-03-17T03:41:53;14.60;;;7.30;;
5333;SDS011;2689;50.954;7.116;2024-03-17T03:44:30;9.73;;;7.50;;
5333;SDS011;2689;50.954;7.116;2024-03-17T03:46:58;10.93;;;8.10;;
5333;SDS011;2689;50.954;7.116;2024-03-17T03:49:26;10.60;;;7.30;;
5333;SDS011;2689;50.954;7.116;2024-03-17T03:51:53;10.33;;;7.80;;
5333;SDS011;2689;50.954;7.116;2024-03-17T03:54:21;11.57;;;7.43;;
5333;SDS011;2689;50.954;7.116;2024-03-17T03:56:47;7.53;;;6.73;;
5333;SDS011;2689;50.954;7.116;2024-03-17T03:59:14;12.50;;;8.97;;
5333;SDS011;2689;50.954;7.116;2024-03-17T04:01:42;13.07;;;7.80;;
5333;SDS011;2689;50.954;7.116;2024-03-17T04:04:11;13.90;;;7.77;;
5333;SDS011;2689;50.954;7.116;2024-03-17T04:06:38;12.77;;;8.30;;
5333;SDS011;2689;50.954;7.116;2024-03-17T04:09:05;10.87;;;7.93;;
5333;SDS011;2689;50.954;7.116;2024-03-17T04:11:33;24.10;;;9.03;;
5333;SDS011;2689;50.954;7.116;2024-03-17T04:14:01;11.53;;;8.80;;
5333;SDS011;2689;50.954;7.116;2024-03-17T04:16:30;10.77;;;7.70;;
5333;SDS011;2689;50.954;7.116;2024-03-17T04:19:00;9.43;;;8.00;;
5333;SDS011;2689;50.954;7.116;2024-03-17T04:21:29;10.60;;;7.77;;
5333;SDS011;2689;50.954;7.116;2024-03-17T04:23:57;13.60;;;9.00;;
5333;SDS011;2689;50.954;7.116;2024-03-17T04:26:24;10.10;;;8.33;;
5333;SDS011;2689;50.954;7.116;2024-03-17T04:28:54;11.90;;;7.43;;
5333;SDS011;2689;50.954;7.116;2024-03-17T04:31:23;11.03;;;8.33;;
5333;SDS011;2689;50.954;7.116;2024-03-17T04:33:49;9.73;;;7.33;;
5333;SDS011;2689;50.954;7.116;2024-03-17T04:36:16;11.77;;;8.57;;
5333;SDS011;2689;50.954;7.116;2024-03-17T04:38:46;9.03;;;7.73;;
5333;SDS011;2689;50.954;7.116;2024-03-17T04:41:16;12.43;;;7.50;;
5333;SDS011;2689;50.954;7.116;2024-03-17T04:43:43;11.00;;;7.73;;
5333;SDS011;2689;50.954;7.116;2024-03-17T04:46:12;9.83;;;7.10;;
5333;SDS011;2689;50.954;7.116;2024-03-17T04:48:40;8.83;;;7.37;;
5333;SDS011;2689;50.954;7.116;2024-03-17T04:51:10;10.70;;;7.13;;
5333;SDS011;2689;50.954;7.116;2024-03-17T04:53:43;11.47;;;7.73;;
5333;SDS011;2689;50.954;7.116;2024-03-17T04:56:12;10.40;;;7.50;;
5333;SDS011;2689;50.954;7.116;2024-03-17T04:58:40;11.80;;;7.47;;
5333;SDS011;2689;50.954;7.116;2024-03-17T05:01:09;10.33;;;7.80;;
5333;SDS011;2689;50.954;7.116;2024-03-17T05:03:38;11.30;;;8.50;;
5333;SDS011;2689;50.954;7.116;2024-03-17T05:06:05;10.67;;;7.57;;
5333;SDS011;2689;50.954;7.116;2024-03-17T05:08:33;8.43;;;7.53;;
5333;SDS011;2689;50.954;7.116;2024-03-17T05:11:02;12.13;;;7.40;;
5333;SDS011;2689;50.954;7.116;2024-03-17T05:13:32;8.80;;;7.87;;
5333;SDS011;2689;50.954;7.116;2024-03-17T05:16:03;12.13;;;7.80;;
5333;SDS011;2689;50.954;7.116;2024-03-17T05:18:31;17.60;;;8.07;;
5333;SDS011;2689;50.954;7.116;2024-03-17T05:20:59;9.80;;;7.67;;
5333;SDS011;2689;50.954;7.116;2024-03-17T05:23:28;10.50;;;7.60;;
5333;SDS011;2689;50.954;7.116;2024-03-17T05:25:57;12.90;;;7.70;;
5333;SDS011;2689;50.954;7.116;2024-03-17T05:28:25;10.33;;;7.10;;
5333;SDS011;2689;50.954;7.116;2024-03-17T05:30:55;9.00;;;7.93;;
5333;SDS011;2689;50.954;7.116;2024-03-17T05:33:24;12.80;;;7.30;;
5333;SDS011;2689;50.954;7.116;2024-03-17T05:35:52;9.70;;;8.00;;
5333;SDS011;2689;50.954;7.116;2024-03-17T05:38:21;13.40;;;7.67;;
5333;SDS011;2689;50.954;7.116;2024-03-17T05:40:55;14.80;;;8.00;;
5333;SDS011;2689;50.954;7.116;2024-03-17T05:43:25;12.00;;;7.10;;
5333;SDS011;2689;50.954;7.116;2024-03-17T05:45:52;8.60;;;7.17;;
5333;SDS011;2689;50.954;7.116;2024-03-17T05:48:26;11.17;;;7.83;;
5333;SDS011;2689;50.954;7.116;2024-03-17T05:50:54;11.60;;;8.33;;
5333;SDS011;2689;50.954;7.116;2024-03-17T05:53:21;11.33;;;7.40;;
5333;SDS011;2689;50.954;7.116;2024-03-17T05:55:49;11.07;;;7.70;;
5333;SDS011;2689;50.954;7.116;2024-03-17T05:58:16;12.87;;;8.00;;
5333;SDS011;2689;50.954;7.116;2024-03-17T06:00:44;12.30;;;7.50;;
5333;SDS011;2689;50.954;7.116;2024-03-17T06:03:13;8.70;;;6.87;;
5333;SDS011;2689;50.954;7.116;2024-03-17T06:05:40;13.73;;;8.20;;
5333;SDS011;2689;50.954;7.116;2024-03-17T06:08:08;10.30;;;7.47;;
5333;SDS011;2689;50.954;7.116;2024-03-17T06:10:42;12.93;;;8.13;;
5333;SDS011;2689;50.954;7.116;2024-03-17T06:13:11;10.40;;;8.03;;
5333;SDS011;2689;50.954;7.116;2024-03-17T06:15:40;10.37;;;7.30;;
5333;SDS011;2689;50.954;7.116;2024-03-17T06:18:07;11.33;;;8.00;;
5333;SDS011;2689;50.954;7.116;2024-03-17T06:20:40;8.53;;;6.73;;
5333;SDS011;2689;50.954;7.116;2024-03-17T06:23:08;9.20;;;7.00;;
5333;SDS011;2689;50.954;7.116;2024-03-17T06:25:39;8.83;;;7.03;;
5333;SDS011;2689;50.954;7.116;2024-03-17T06:28:07;10.87;;;7.50;;
5333;SDS011;2689;50.954;7.116;2024-03-17T06:30:38;7.07;;;6.37;;
5333;SDS011;2689;50.954;7.116;2024-03-17T06:33:05;9.13;;;6.33;;
5333;SDS011;2689;50.954;7.116;2024-03-17T06:35:33;9.37;;;6.30;;
5333;SDS011;2689;50.954;7.116;2024-03-17T06:38:04;11.97;;;6.40;;
5333;SDS011;2689;50.954;7.116;2024-03-17T06:40:35;11.23;;;6.67;;
5333;SDS011;2689;50.954;7.116;2024-03-17T06:43:01;9.30;;;6.60;;
5333;SDS011;2689;50.954;7.116;2024-03-17T06:45:28;8.30;;;6.70;;
5333;SDS011;2689;50.954;7.116;2024-03-17T06:47:55;9.57;;;5.93;;
5333;SDS011;2689;50.954;7.116;2024-03-17T06:50:22;13.60;;;6.40;;
5333;SDS011;2689;50.954;7.116;2024-03-17T06:52:49;7.77;;;5.90;;
5333;SDS011;2689;50.954;7.116;2024-03-17T06:55:19;8.40;;;5.40;;
5333;SDS011;2689;50.954;7.116;2024-03-17T06:57:46;10.87;;;6.20;;
5333;SDS011;2689;50.954;7.116;2024-03-17T07:00:13;8.00;;;5.60;;
5333;SDS011;2689;50.954;7.116;2024-03-17T07:02:42;10.97;;;5.80;;
5333;SDS011;2689;50.954;7.116;2024-03-17T07:05:11;9.97;;;6.60;;
5333;SDS011;2689;50.954;7.116;2024-03-17T07:07:40;8.67;;;6.03;;
5333;SDS011;2689;50.954;7.116;2024-03-17T07:10:07;6.23;;;5.40;;
5333;SDS011;2689;50.954;7.116;2024-03-17T07:12:37;7.43;;;5.20;;
5333;SDS011;2689;50.954;7.116;2024-03-17T07:15:04;10.20;;;6.43;;
5333;SDS011;2689;50.954;7.116;2024-03-17T07:17:31;6.53;;;5.47;;
5333;SDS011;2689;50.954;7.116;2024-03-17T07:19:58;7.03;;;5.60;;
5333;SDS011;2689;50.954;7.116;2024-03-17T07:22:28;7.03;;;5.60;;
5333;SDS011;2689;50.954;7.116;2024-03-17T07:24:55;8.53;;;5.40;;
5333;SDS011;2689;50.954;7.116;2024-03-17T07:27:25;7.80;;;5.77;;
5333;SDS011;2689;50.954;7.116;2024-03-17T07:29:54;7.17;;;5.07;;
5333;SDS011;2689;50.954;7.116;2024-03-17T07:32:21;6.43;;;4.63;;
5333;SDS011;2689;50.954;7.116;2024-03-17T07:34:48;6.57;;;4.83;;
5333;SDS011;2689;50.954;7.116;2024-03-17T07:37:15;11.13;;;4.97;;
5333;SDS011;2689;50.954;7.116;2024-03-17T07:39:42;5.80;;;5.10;;
5333;SDS011;2689;50.954;7.116;2024-03-17T07:42:09;5.53;;;4.63;;
5333;SDS011;2689;50.954;7.116;2024-03-17T07:44:38;6.90;;;4.60;;
5333;SDS011;2689;50.954;7.116;2024-03-17T07:47:08;6.53;;;4.90;;
5333;SDS011;2689;50.954;7.116;2024-03-17T07:49:35;8.03;;;4.27;;
5333;SDS011;2689;50.954;7.116;2024-03-17T07:52:03;6.17;;;3.83;;
5333;SDS011;2689;50.954;7.116;2024-03-17T07:54:30;6.40;;;4.83;;
5333;SDS011;2689;50.954;7.116;2024-03-17T07:56:57;6.70;;;4.43;;
5333;SDS011;2689;50.954;7.116;2024-03-17T07:59:24;5.77;;;4.20;;
5333;SDS011;2689;50.954;7.116;2024-03-17T08:01:51;4.00;;;3.60;;
5333;SDS011;2689;50.954;7.116;2024-03-17T08:04:28;5.37;;;4.20;;
5333;SDS011;2689;50.954;7.116;2024-03-17T08:06:56;5.03;;;4.00;;
5333;SDS011;2689;50.954;7.116;2024-03-17T08:09:25;6.50;;;3.80;;
5333;SDS011;2689;50.954;7.116;2024-03-17T08:11:52;5.73;;;3.53;;
5333;SDS011;2689;50.954;7.116;2024-03-17T08:14:18;4.97;;;3.33;;
5333;SDS011;2689;50.954;7.116;2024-03-17T08:16:45;3.73;;;3.30;;
5333;SDS011;2689;50.954;7.116;2024-03-17T08:19:12;5.73;;;3.40;;
5333;SDS011;2689;50.954;7.116;2024-03-17T08:21:41;5.70;;;3.97;;
5333;SDS011;2689;50.954;7.116;2024-03-17T08:24:11;4.10;;;3.50;;
5333;SDS011;2689;50.954;7.116;2024-03-17T08:27:28;3.87;;;2.80;;
5333;SDS011;2689;50.954;7.116;2024-03-17T08:29:56;3.03;;;2.43;;
5333;SDS011;2689;50.954;7.116;2024-03-17T08:32:28;6.70;;;3.33;;
5333;SDS011;2689;50.954;7.116;2024-03-17T08:34:58;4.50;;;3.00;;
5333;SDS011;2689;50.954;7.116;2024-03-17T08:37:29;4.53;;;3.20;;
5333;SDS011;2689;50.954;7.116;2024-03-17T08:39:57;4.83;;;3.13;;
5333;SDS011;2689;50.954;7.116;2024-03-17T08:42:24;6.27;;;3.00;;
5333;SDS011;2689;50.954;7.116;2024-03-17T08:44:53;7.47;;;2.70;;
5333;SDS011;2689;50.954;7.116;2024-03-17T08:47:25;4.20;;;3.00;;
5333;SDS011;2689;50.954;7.116;2024-03-17T08:49:52;4.50;;;2.90;;
5333;SDS011;2689;50.954;7.116;2024-03-17T08:52:19;3.03;;;2.40;;
5333;SDS011;2689;50.954;7.116;2024-03-17T08:54:47;4.00;;;2.70;;
5333;SDS011;2689;50.954;7.116;2024-03-17T08:57:18;3.80;;;2.20;;
5333;SDS011;2689;50.954;7.116;2024-03-17T08:59:54;6.47;;;2.80;;
5333;SDS011;2689;50.954;7.116;2024-03-17T09:05:10;5.53;;;2.30;;
5333;SDS011;2689;50.954;7.116;2024-03-17T09:07:37;3.63;;;2.90;;
5333;SDS011;2689;50.954;7.116;2024-03-17T09:10:08;4.70;;;3.00;;
5333;SDS011;2689;50.954;7.116;2024-03-17T09:12:46;3.90;;;2.90;;
5333;SDS011;2689;50.954;7.116;2024-03-17T09:15:20;3.97;;;2.73;;
5333;SDS011;2689;50.954;7.116;2024-03-17T09:18:02;6.83;;;2.37;;
5333;SDS011;2689;50.954;7.116;2024-03-17T09:20:38;3.13;;;2.77;;
5333;SDS011;2689;50.954;7.116;2024-03-17T09:23:05;4.70;;;2.80;;
5333;SDS011;2689;50.954;7.116;2024-03-17T09:25:41;3.80;;;3.20;;
5333;SDS011;2689;50.954;7.116;2024-03-17T09:28:08;3.93;;;2.93;;
5333;SDS011;2689;50.954;7.116;2024-03-17T09:30:38;4.03;;;3.13;;
5333;SDS011;2689;50.954;7.116;2024-03-17T09:33:11;3.47;;;2.83;;
5333;SDS011;2689;50.954;7.116;2024-03-17T09:36:16;5.57;;;3.20;;
5333;SDS011;2689;50.954;7.116;2024-03-17T09:38:43;4.20;;;3.10;;
5333;SDS011;2689;50.954;7.116;2024-03-17T09:41:24;4.30;;;3.27;;
5333;SDS011;2689;50.954;7.116;2024-03-17T09:43:56;5.40;;;3.20;;
5333;SDS011;2689;50.954;7.116;2024-03-17T09:46:24;4.00;;;2.90;;
5333;SDS011;2689;50.954;7.116;2024-03-17T09:48:52;3.63;;;3.30;;
5333;SDS011;2689;50.954;7.116;2024-03-17T09:51:22;4.53;;;3.13;;
5333;SDS011;2689;50.954;7.116;2024-03-17T09:53:52;3.50;;;3.10;;
5333;SDS011;2689;50.954;7.116;2024-03-17T09:56:20;3.43;;;2.60;;
5333;SDS011;2689;50.954;7.116;2024-03-17T09:58:49;3.43;;;2.80;;
5333;SDS011;2689;50.954;7.116;2024-03-17T10:01:17;3.43;;;2.90;;
5333;SDS011;2689;50.954;7.116;2024-03-17T10:03:45;4.50;;;3.40;;
5333;SDS011;2689;50.954;7.116;2024-03-17T10:06:16;5.10;;;3.07;;
5333;SDS011;2689;50.954;7.116;2024-03-17T10:08:44;3.73;;;2.80;;
5333;SDS011;2689;50.954;7.116;2024-03-17T10:11:13;6.13;;;2.90;;
5333;SDS011;2689;50.954;7.116;2024-03-17T10:13:41;4.80;;;2.87;;
5333;SDS011;2689;50.954;7.116;2024-03-17T10:16:21;7.47;;;3.00;;
5333;SDS011;2689;50.954;7.116;2024-03-17T10:18:50;4.70;;;2.80;;
5333;SDS011;2689;50.954;7.116;2024-03-17T10:21:26;5.27;;;3.10;;
5333;SDS011;2689;50.954;7.116;2024-03-17T10:24:07;5.70;;;3.33;;
5333;SDS011;2689;50.954;7.116;2024-03-17T10:26:40;3.00;;;2.10;;
5333;SDS011;2689;50.954;7.116;2024-03-17T10:31:58;7.57;;;3.83;;
5333;SDS011;2689;50.954;7.116;2024-03-17T10:34:27;3.63;;;3.10;;
5333;SDS011;2689;50.954;7.116;2024-03-17T10:37:05;5.90;;;3.10;;
5333;SDS011;2689;50.954;7.116;2024-03-17T10:39:35;5.53;;;3.00;;
5333;SDS011;2689;50.954;7.116;2024-03-17T10:42:03;4.50;;;3.03;;
5333;SDS011;2689;50.954;7.116;2024-03-17T10:44:31;5.43;;;2.80;;
5333;SDS011;2689;50.954;7.116;2024-03-17T10:47:00;5.60;;;3.03;;
5333;SDS011;2689;50.954;7.116;2024-03-17T10:49:30;2.97;;;2.67;;
5333;SDS011;2689;50.954;7.116;2024-03-17T10:51:58;4.50;;;2.80;;
5333;SDS011;2689;50.954;7.116;2024-03-17T10:54:26;2.57;;;2.27;;
5333;SDS011;2689;50.954;7.116;2024-03-17T10:56:54;4.07;;;2.60;;
5333;SDS011;2689;50.954;7.116;2024-03-17T10:59:28;3.43;;;2.47;;
5333;SDS011;2689;50.954;7.116;2024-03-17T11:02:06;4.97;;;2.60;;
5333;SDS011;2689;50.954;7.116;2024-03-17T11:04:45;5.47;;;2.90;;
5333;SDS011;2689;50.954;7.116;2024-03-17T11:07:16;5.47;;;2.57;;
5333;SDS011;2689;50.954;7.116;2024-03-17T11:09:44;6.10;;;2.50;;
5333;SDS011;2689;50.954;7.116;2024-03-17T11:20:56;4.60;;;2.60;;
5333;SDS011;2689;50.954;7.116;2024-03-17T11:23:28;5.50;;;3.47;;
5333;SDS011;2689;50.954;7.116;2024-03-17T11:26:10;5.13;;;2.93;;
5333;SDS011;2689;50.954;7.116;2024-03-17T11:28:47;3.87;;;3.30;;
5333;SDS011;2689;50.954;7.116;2024-03-17T11:44:42;6.13;;;3.03;;
5333;SDS011;2689;50.954;7.116;2024-03-17T11:48:52;4.00;;;3.20;;
5333;SDS011;2689;50.954;7.116;2024-03-17T12:17:39;5.13;;;3.10;;
5333;SDS011;2689;50.954;7.116;2024-03-17T12:20:13;4.57;;;3.10;;
5333;SDS011;2689;50.954;7.116;2024-03-17T12:33:13;7.03;;;2.60;;
5333;SDS011;2689;50.954;7.116;2024-03-17T12:35:54;3.33;;;2.80;;
5333;SDS011;2689;50.954;7.116;2024-03-17T12:38:32;3.73;;;2.57;;
5333;SDS011;2689;50.954;7.116;2024-03-17T12:41:18;5.63;;;2.60;;
5333;SDS011;2689;50.954;7.116;2024-03-17T13:27:49;4.60;;;2.90;;
5333;SDS011;2689;50.954;7.116;2024-03-17T13:31:27;6.77;;;3.00;;
5333;SDS011;2689;50.954;7.116;2024-03-17T13:33:47;5.30;;;2.87;;
5333;SDS011;2689;50.954;7.116;2024-03-17T13:39:54;4.83;;;2.73;;
5333;SDS011;2689;50.954;7.116;2024-03-17T13:42:33;6.57;;;3.70;;
5333;SDS011;2689;50.954;7.116;2024-03-17T13:45:50;4.07;;;3.13;;
5333;SDS011;2689;50.954;7.116;2024-03-17T13:48:20;5.30;;;3.50;;
5333;SDS011;2689;50.954;7.116;2024-03-17T13:51:01;5.00;;;3.33;;
5333;SDS011;2689;50.954;7.116;2024-03-17T13:56:42;8.10;;;3.10;;
5333;SDS011;2689;50.954;7.116;2024-03-17T14:02:50;5.47;;;2.97;;
5333;SDS011;2689;50.954;7.116;2024-03-17T14:05:20;4.80;;;3.00;;
5333;SDS011;2689;50.954;7.116;2024-03-17T14:07:49;6.13;;;3.30;;
5333;SDS011;2689;50.954;7.116;2024-03-17T14:10:22;4.33;;;2.73;;
5333;SDS011;2689;50.954;7.116;2024-03-17T14:12:50;3.57;;;2.50;;
5333;SDS011;2689;50.954;7.116;2024-03-17T14:15:19;4.23;;;3.03;;
5333;SDS011;2689;50.954;7.116;2024-03-17T14:17:47;4.33;;;3.00;;
5333;SDS011;2689;50.954;7.116;2024-03-17T14:20:17;4.90;;;2.97;;
5333;SDS011;2689;50.954;7.116;2024-03-17T14:22:47;2.43;;;2.23;;
5333;SDS011;2689;50.954;7.116;2024-03-17T14:47:31;3.80;;;2.70;;
5333;SDS011;2689;50.954;7.116;2024-03-17T14:50:00;7.37;;;3.03;;
5333;SDS011;2689;50.954;7.116;2024-03-17T14:52:27;5.07;;;3.33;;
5333;SDS011;2689;50.954;7.116;2024-03-17T14:54:56;4.47;;;2.93;;
5333;SDS011;2689;50.954;7.116;2024-03-17T14:57:24;3.77;;;2.73;;
5333;SDS011;2689;50.954;7.116;2024-03-17T14:59:53;5.73;;;2.60;;
5333;SDS011;2689;50.954;7.116;2024-03-17T15:02:26;4.93;;;2.97;;
5333;SDS011;2689;50.954;7.116;2024-03-17T15:08:03;9.97;;;4.10;;
5333;SDS011;2689;50.954;7.116;2024-03-17T15:10:37;3.30;;;2.80;;
5333;SDS011;2689;50.954;7.116;2024-03-17T15:13:10;3.73;;;2.87;;
5333;SDS011;2689;50.954;7.116;2024-03-17T15:15:54;5.77;;;3.30;;
5333;SDS011;2689;50.954;7.116;2024-03-17T15:18:23;3.40;;;2.40;;
5333;SDS011;2689;50.954;7.116;2024-03-17T15:20:52;4.40;;;2.60;;
5333;SDS011;2689;50.954;7.116;2024-03-17T15:29:48;5.43;;;2.30;;
5333;SDS011;2689;50.954;7.116;2024-03-17T15:36:24;4.53;;;2.27;;
5333;SDS011;2689;50.954;7.116;2024-03-17T15:38:53;6.13;;;3.03;;
5333;SDS011;2689;50.954;7.116;2024-03-17T15:41:46;2.90;;;2.50;;
5333;SDS011;2689;50.954;7.116;2024-03-17T15:56:58;4.73;;;2.90;;
5333;SDS011;2689;50.954;7.116;2024-03-17T16:07:53;3.57;;;2.50;;
5333;SDS011;2689;50.954;7.116;2024-03-17T16:10:21;6.63;;;4.40;;
5333;SDS011;2689;50.954;7.116;2024-03-17T16:12:55;3.67;;;3.07;;
5333;SDS011;2689;50.954;7.116;2024-03-17T16:15:22;3.23;;;2.87;;
5333;SDS011;2689;50.954;7.116;2024-03-17T16:24:11;4.60;;;2.80;;
5333;SDS011;2689;50.954;7.116;2024-03-17T16:28:55;4.30;;;3.00;;
5333;SDS011;2689;50.954;7.116;2024-03-17T16:30:15;3.60;;;3.20;;
5333;SDS011;2689;50.954;7.116;2024-03-17T16:32:42;4.47;;;2.80;;
5333;SDS011;2689;50.954;7.116;2024-03-17T16:35:14;3.80;;;3.00;;
5333;SDS011;2689;50.954;7.116;2024-03-17T16:37:45;5.10;;;2.80;;
5333;SDS011;2689;50.954;7.116;2024-03-17T16:40:16;4.80;;;3.10;;
5333;SDS011;2689;50.954;7.116;2024-03-17T16:42:45;8.33;;;3.80;;
5333;SDS011;2689;50.954;7.116;2024-03-17T16:45:12;5.10;;;3.10;;
5333;SDS011;2689;50.954;7.116;2024-03-17T16:47:40;4.00;;;2.93;;
5333;SDS011;2689;50.954;7.116;2024-03-17T16:50:07;3.10;;;2.73;;
5333;SDS011;2689;50.954;7.116;2024-03-17T16:52:35;5.67;;;2.77;;
5333;SDS011;2689;50.954;7.116;2024-03-17T16:55:02;4.30;;;3.00;;
5333;SDS011;2689;50.954;7.116;2024-03-17T16:57:32;3.47;;;2.63;;
5333;SDS011;2689;50.954;7.116;2024-03-17T17:00:00;3.90;;;3.20;;
5333;SDS011;2689;50.954;7.116;2024-03-17T17:02:30;4.77;;;2.90;;
5333;SDS011;2689;50.954;7.116;2024-03-17T17:04:59;4.43;;;3.20;;
5333;SDS011;2689;50.954;7.116;2024-03-17T17:07:30;4.80;;;3.30;;
5333;SDS011;2689;50.954;7.116;2024-03-17T17:09:57;34.83;;;3.63;;
5333;SDS011;2689;50.954;7.116;2024-03-17T17:44:16;5.20;;;2.87;;
5333;SDS011;2689;50.954;7.116;2024-03-17T17:46:43;6.97;;;2.50;;
5333;SDS011;2689;50.954;7.116;2024-03-17T17:49:15;4.00;;;2.77;;
5333;SDS011;2689;50.954;7.116;2024-03-17T17:51:49;3.97;;;2.83;;
5333;SDS011;2689;50.954;7.116;2024-03-17T17:54:16;4.37;;;2.40;;
5333;SDS011;2689;50.954;7.116;2024-03-17T17:56:46;3.43;;;2.63;;
5333;SDS011;2689;50.954;7.116;2024-03-17T17:59:15;3.43;;;2.30;;
5333;SDS011;2689;50.954;7.116;2024-03-17T18:01:42;5.60;;;2.87;;
5333;SDS011;2689;50.954;7.116;2024-03-17T18:04:09;5.27;;;3.03;;
5333;SDS011;2689;50.954;7.116;2024-03-17T18:06:36;3.40;;;2.57;;
5333;SDS011;2689;50.954;7.116;2024-03-17T18:09:03;2.93;;;2.27;;
5333;SDS011;2689;50.954;7.116;2024-03-17T18:11:39;3.80;;;2.40;;
5333;SDS011;2689;50.954;7.116;2024-03-17T18:14:06;3.83;;;2.47;;
5333;SDS011;2689;50.954;7.116;2024-03-17T18:16:35;5.20;;;2.70;;
5333;SDS011;2689;50.954;7.116;2024-03-17T18:19:02;4.73;;;2.73;;
5333;SDS011;2689;50.954;7.116;2024-03-17T18:21:31;3.60;;;3.10;;
5333;SDS011;2689;50.954;7.116;2024-03-17T18:24:00;8.90;;;3.30;;
5333;SDS011;2689;50.954;7.116;2024-03-17T18:26:27;7.87;;;2.90;;
5333;SDS011;2689;50.954;7.116;2024-03-17T18:28:54;4.03;;;2.30;;
5333;SDS011;2689;50.954;7.116;2024-03-17T18:31:22;4.03;;;2.77;;
5333;SDS011;2689;50.954;7.116;2024-03-17T18:33:50;6.77;;;2.73;;
5333;SDS011;2689;50.954;7.116;2024-03-17T18:36:20;4.37;;;3.07;;
5333;SDS011;2689;50.954;7.116;2024-03-17T18:38:50;5.20;;;3.57;;
5333;SDS011;2689;50.954;7.116;2024-03-17T18:41:19;5.50;;;2.80;;
5333;SDS011;2689;50.954;7.116;2024-03-17T18:43:46;4.93;;;2.50;;
5333;SDS011;2689;50.954;7.116;2024-03-17T18:46:29;6.93;;;4.03;;
5333;SDS011;2689;50.954;7.116;2024-03-17T19:09:08;7.10;;;3.30;;
5333;SDS011;2689;50.954;7.116;2024-03-17T19:11:41;5.10;;;3.00;;
5333;SDS011;2689;50.954;7.116;2024-03-17T19:14:09;3.70;;;3.07;;
5333;SDS011;2689;50.954;7.116;2024-03-17T19:19:32;5.17;;;3.17;;
5333;SDS011;2689;50.954;7.116;2024-03-17T19:22:04;4.77;;;3.70;;
5333;SDS011;2689;50.954;7.116;2024-03-17T19:24:32;4.10;;;3.40;;
5333;SDS011;2689;50.954;7.116;2024-03-17T19:27:01;4.53;;;3.70;;
5333;SDS011;2689;50.954;7.116;2024-03-17T19:29:29;7.80;;;3.70;;
5333;SDS011;2689;50.954;7.116;2024-03-17T19:31:56;5.27;;;3.67;;
5333;SDS011;2689;50.954;7.116;2024-03-17T19:34:23;6.13;;;4.47;;
5333;SDS011;2689;50.954;7.116;2024-03-17T19:36:51;3.90;;;3.20;;
5333;SDS011;2689;50.954;7.116;2024-03-17T19:39:19;3.77;;;3.20;;
5333;SDS011;2689;50.954;7.116;2024-03-17T19:41:46;7.00;;;3.43;;
5333;SDS011;2689;50.954;7.116;2024-03-17T19:44:14;4.67;;;3.63;;
5333;SDS011;2689;50.954;7.116;2024-03-17T19:46:41;3.87;;;3.47;;
5333;SDS011;2689;50.954;7.116;2024-03-17T19:49:08;8.40;;;4.90;;
5333;SDS011;2689;50.954;7.116;2024-03-17T19:51:35;4.57;;;4.10;;